Nassau, Bahamas

3:35 AM EDT on July 30, 2014 (GMT -0400)
Blair Est "Dick Drizzle" (INEWPROV7) Elev 39 ft | 25.06 °N, 77.31 °W | Change Station

Current weather conditions updated 4 minutes ago

Partly Cloudy
Partly Cloudy
79.6 °F
Feels Like 84 °F
N
0.0
Wind Variable Wind from SE
Gusts 1.0 mph

Today is forecast to be Much Cooler than yesterday. Isolated thunderstorms tonight.

Today
High -- | Low -- °F
--% Chance of Precip.
Yesterday
High -- | Low -- °F
Precip. -- in
6:35 AM 7:55 PM
Waxing Crescent, 10% visible
Pressure 30.03 in
Visibility 6.2 miles
Clouds Few 2000 ft
Heat Index 84 °F
Dew Point 76 °F
Humidity 88%
Rainfall 0.00 in
Snow Depth Not available.
UV 0 out of 12
Pollen Not available.
Air Quality Not available.
Flu Activity Not available.
METAR MYNN 300500Z VRB02KT 9999 FEW020 29/23 A3003

More Conditions Fewer Conditions

Pressure 30.03 in
Visibility 6.2 miles
Clouds Few 2000 ft
Heat Index 84 °F
Dew Point 76 °F
Humidity 88%
Rainfall 0.00 in
Snow Depth Not available.
UV 0 out of 12
Pollen Not available.
Air Quality Not available.
Flu Activity Not available.
METAR MYNN 300500Z VRB02KT 9999 FEW020 29/23 A3003

More Conditions Fewer Conditions

10-Day Weather Forecast

Almanac

Astronomy

Jul. 30, 2014 Rise Set
Actual Time 6:35 AM EDT 7:55 PM EDT
Civil Twilight 6:11 AM EDT 8:20 PM EDT
Nautical Twilight 5:41 AM EDT 8:49 PM EDT
Astronomical Twilight 5:11 AM EDT 9:20 PM EDT
Moon 9:39 AM EDT 10:06 PM EDT
Length of Visible Light 14h 09m
Length of Day
13h 19m
Tomorrow will be 1m 4s shorter.
Waxing Crescent, 10% of the Moon is Illuminated
Today
Waxing Crescent
Aug 3
First Quarter
Aug 10
Full
Aug 17
Last Quarter
Aug 25
New

Yesterday's Extremes

Country Highs Country Lows

Community

WunderPhotos

Upload Photos

1,739,022 photos uploaded!

WunderBlogs® & News

By Dr. Jeff Masters
Director of Meteorology, Weather Underground
By Kari Strenfel
Meteorologist, Weather Underground
By Christopher C. Burt
Weather Historian, Weather Underground
July 29, 2014
July 29, 2014
July 29, 2014

Nearby

Snow Depth

Not available.

Earthquake Activity

City Distance Mag. Time & Date
No recent earthquake activity has been reported nearby.
Minimum magnitude displayed is 2.5.

Coastal Water Temperatures

Place Temperature
No Stations Reporting

Nearby Weather Stations

Station Location Temp. Heat Index Dew Point Humidity Wind Precip. Elev Updated Type
Blair Est "Dick Drizzle", Nassau 79.6 °F 84 °F 76 °F 88% SE  at  0.0 mph 0.00 in / hr 39 ft 3:30 AM EDT Normal
Sans Souci, Nassau 82.3 °F 90 °F 76 °F 81% SW  at  1.0 mph 0.00 in / hr 0 ft 3:27 AM EDT Normal

Show More Stations Show Fewer Stations